Gilmore, Missouri
Current Conditions -  °F | °C
As of 12:59 AM on Monday 24 Nov 2014 (Local Time) from KSUS Reporting Station
Moderate Rain Moderate Rain  
Wind Chill: 54°   Ceiling: 1100
Heat Index: 54°   Visibility: 5mi
Dew Point: 52°   Wind: 26mph
Humidity: 94%   Direction: 300°WNW
Pressure: 29.2"   Gusts: 39mph
Location:  38.7993°N, 90.8471°W
Report Text: KSUS 240659Z AUTO 30023G34KT 5SM RA BR BKN011 BKN020 OVC055 12/11 A2920 RMK AO2 PK WND 30034/0659 TSE59 P0002
Loading
Personal Weather Stations






























Interactive Weather Map New forecast layout! Learn more

10-Day Weather Forecast

Advertisements
Track Severe Weather on mobile